首页
METAR-TAF:

METAR-TAF

机场 :

賓漢頓, 紐約州, 美国

纬度: 42-12-28N, 经度: 075-58-53W, 海拔: 496米

当前天气观测

该预报发布于52分钟前的12:53 UTC
风速8节,风向东转东南
温度 -2°C
湿度 93%
气压 1011 hPa
能見度: 6.4公里
天空无云
轻雾

METAR: KBGM 151253Z 12008KT 4SM BR CLR M02/M03 A2985 RMK AO2 SLP123 T10171028

时间: 08:45 (13:45 UTC)

预报

该预报发布于2小时和5分钟前的11:40 UTC
预报有效从15日的 12点(UTC)到 16日的 12点(UTC)
风速11节,风向东南
能見度: 10公里
少量云层高于2800英尺
多云层高于20000英尺
从 15日的 1800点(UTC)
风速12节,风向东南,有时为20节阵风
能見度: 10公里
多云层高于2500英尺
阴天层高于18000英尺
从 15日的 2100点(UTC)
风速15节,风向东南,有时为25节阵风
能見度: 10公里
阴天层高于1800英尺
从 15日的 2300点(UTC)
风速12节,风向东南,有时为21节阵风
能見度: 6.4公里
多云层高于800英尺
阴天层高于1200英尺
小阵雨, 雪
从 16日的 0900点(UTC)
风速12节,风向东南,有时为20节阵风
能見度: 1.6公里
多云层高于300英尺
阴天层高于1000英尺
小雪

TAF: KBGM 151140Z 1512/1612 13011KT P6SM FEW028 BKN200 FM151800 14012G20KT P6SM BKN025 OVC180 FM152100 13015G25KT P6SM OVC018 WS015/15038KT FM152300 14012G21KT 4SM -SHRASN BKN008 OVC012 WS015/15044KT FM160900 13012G20KT 1SM -SN BKN003 OVC010

超过4000个机场的气象观测和天气预报(METAR&TAF报告)。

可查询的气象台以黄色和红色小点在地图上表示。

将鼠标移到小点上方,可查看气象台名称。

然后点击查看天气观测和预报。

如需切换地图:点击带黑十字的绿色按钮放大地图;点击带横线的绿色按钮缩小地图;或者点击绿色箭头查看邻近地区的地图。


METAR-TAF: